Time;durP1;ratioP1;P1;durP2;ratioP2;P2;SDS_P1;SDS_P2;PMS_P1;PMS_P2;Temp;Humidity;BMP_temperature;BMP_pressure;BME280_temperature;BME280_humidity;BME280_pressure;Samples;Min_cycle;Max_cycle;Signal;HPM_P1;HPM_P2
2023/05/16 00:03:44;;;;;;;4.10;2.70;;;;;;;14.64;63.16;98444.70;223670;181;136436;-63
2023/05/16 00:08:48;;;;;;;8.30;2.70;;;;;;;14.46;63.59;98447.45;223685;181;145315;-63
2023/05/16 00:13:52;;;;;;;4.90;2.70;;;;;;;14.39;63.57;98451.77;223692;181;138973;-64
2023/05/16 00:19:11;;;;;;;3.30;2.50;;;;;;;14.37;63.50;98446.96;223724;181;136720;-63
2023/05/16 00:24:14;;;;;;;6.50;2.60;;;;;;;14.35;63.55;98460.20;223701;181;145699;-64
2023/05/16 00:29:17;;;;;;;3.60;2.40;;;;;;;14.32;63.61;98472.36;223758;181;139211;-64
2023/05/16 00:34:21;;;;;;;2.50;2.10;;;;;;;14.31;63.62;98475.34;223757;181;137775;-63
2023/05/16 00:39:27;;;;;;;3.30;2.30;;;;;;;14.34;63.55;98476.17;223714;181;145834;-63
2023/05/16 00:44:31;;;;;;;4.70;2.50;;;;;;;14.42;63.27;98475.46;223766;181;139938;-63
2023/05/16 00:49:34;;;;;;;6.10;2.90;;;;;;;14.47;63.08;98476.84;223804;181;139829;-66
2023/05/16 00:54:38;;;;;;;4.70;2.30;;;;;;;14.46;62.90;98480.86;223711;181;145236;-65
2023/05/16 00:59:45;;;;;;;4.50;2.50;;;;;;;14.46;62.88;98486.21;223767;181;138811;-64
2023/05/16 01:04:50;;;;;;;3.70;2.40;;;;;;;14.42;62.75;98493.48;223785;181;136987;-66
2023/05/16 01:09:54;;;;;;;3.20;1.90;;;;;;;14.36;62.76;98498.98;223804;182;145070;-65
2023/05/16 01:15:12;;;;;;;4.00;2.20;;;;;;;14.30;62.82;98487.58;223725;181;138393;-65
2023/05/16 01:20:17;;;;;;;4.10;2.00;;;;;;;14.22;63.02;98483.10;223781;178;136669;-63
2023/05/16 01:25:30;;;;;;;;;;;;;;;14.10;63.09;98480.71;223782;182;145951;-65
2023/05/16 01:30:39;;;;;;;3.30;2.10;;;;;;;14.01;63.32;98493.64;223859;181;138184;-64
2023/05/16 01:35:53;;;;;;;8.10;2.30;;;;;;;13.95;63.48;98486.13;223717;181;139606;-64
2023/05/16 01:41:07;;;;;;;3.70;2.00;;;;;;;13.85;63.76;98484.79;223683;181;145159;-62
2023/05/16 01:46:19;;;;;;;3.50;2.00;;;;;;;13.80;63.92;98485.77;222927;181;139297;-65
2023/05/16 01:51:29;;;;;;;4.00;1.90;;;;;;;13.76;63.97;98487.35;223713;181;137655;-65
2023/05/16 01:56:34;;;;;;;3.70;1.90;;;;;;;13.73;64.30;98486.38;223703;181;146124;-64
2023/05/16 02:01:37;;;;;;;3.40;2.00;;;;;;;13.62;64.72;98485.14;223758;181;138297;-64
2023/05/16 02:06:41;;;;;;;4.40;1.80;;;;;;;13.65;64.57;98480.42;223624;181;136629;-62
2023/05/16 02:11:45;;;;;;;4.10;2.20;;;;;;;13.70;64.52;98480.88;223764;181;145482;-63
2023/05/16 02:16:49;;;;;;;3.80;2.00;;;;;;;13.65;64.58;98487.95;223765;181;139018;-63
2023/05/16 02:21:52;;;;;;;6.70;2.40;;;;;;;13.59;64.80;98490.02;223685;181;137131;-62
2023/05/16 02:26:56;;;;;;;7.80;2.00;;;;;;;13.49;65.10;98491.77;223707;181;145916;-63
2023/05/16 02:32:00;;;;;;;10.40;3.10;;;;;;;13.33;65.39;98500.25;223628;181;140246;-63
2023/05/16 02:37:03;;;;;;;8.70;2.80;;;;;;;13.17;65.94;98495.80;223817;181;137615;-63
2023/05/16 02:48:05;;;;;;;4.10;2.90;;;;;;;12.95;66.64;98496.81;222193;189;666556;-63
2023/05/16 02:53:10;;;;;;;4.90;2.70;;;;;;;12.86;66.75;98496.88;223356;187;136385;-62
2023/05/16 02:58:13;;;;;;;6.50;2.90;;;;;;;12.79;67.07;98501.14;223443;185;143228;-63
2023/05/16 03:03:16;;;;;;;7.10;3.10;;;;;;;12.78;67.36;98510.69;223268;185;138571;-66
2023/05/16 03:08:19;;;;;;;9.60;3.70;;;;;;;12.77;67.51;98523.58;223344;186;136854;-65
2023/05/16 03:13:23;;;;;;;7.70;3.30;;;;;;;12.74;67.67;98517.03;223456;186;143651;-65
2023/05/16 03:18:26;;;;;;;11.20;3.40;;;;;;;12.72;67.90;98499.96;223459;185;138911;-65
2023/05/16 03:23:29;;;;;;;13.90;3.70;;;;;;;12.68;67.91;98501.65;223590;185;138299;-65
2023/05/16 03:28:32;;;;;;;12.00;3.80;;;;;;;12.66;68.16;98501.98;223612;185;144660;-66
2023/05/16 03:33:36;;;;;;;10.40;3.50;;;;;;;12.66;68.29;98507.38;223550;184;139071;-63
2023/05/16 03:38:39;;;;;;;11.70;3.60;;;;;;;12.66;68.67;98506.09;223447;184;136414;-63
2023/05/16 03:43:42;;;;;;;14.10;3.60;;;;;;;12.69;68.96;98516.71;223551;184;145386;-64
2023/05/16 03:48:46;;;;;;;12.00;3.80;;;;;;;12.72;69.05;98530.55;223609;183;139404;-63
2023/05/16 03:53:49;;;;;;;12.80;3.70;;;;;;;12.80;69.16;98532.41;223649;184;137112;-62
2023/05/16 03:58:52;;;;;;;15.80;3.70;;;;;;;12.92;69.20;98525.02;223632;184;145140;-63
2023/05/16 04:03:55;;;;;;;13.10;4.20;;;;;;;12.96;69.29;98523.95;223591;184;138486;-62
2023/05/16 04:08:58;;;;;;;7.00;3.80;;;;;;;13.01;69.47;98522.35;223444;184;137011;-63
2023/05/16 04:14:01;;;;;;;7.70;3.80;;;;;;;13.09;69.46;98521.93;223539;184;145125;-64
2023/05/16 04:19:04;;;;;;;6.70;3.00;;;;;;;13.21;69.13;98533.39;223508;184;138960;-63
2023/05/16 04:24:07;;;;;;;7.50;2.80;;;;;;;13.41;68.25;98538.73;223611;184;139315;-65
2023/05/16 04:29:13;;;;;;;6.30;3.30;;;;;;;13.58;67.88;98531.29;223588;184;145861;-67
2023/05/16 04:34:16;;;;;;;6.70;2.80;;;;;;;13.71;68.39;98528.40;223567;184;138643;-67
2023/05/16 04:39:19;;;;;;;4.90;2.60;;;;;;;13.89;67.21;98540.33;223467;184;138077;-69
2023/05/16 04:44:23;;;;;;;6.10;3.10;;;;;;;14.11;66.27;98550.05;223507;184;145137;-67
2023/05/16 04:49:26;;;;;;;4.20;2.50;;;;;;;14.28;65.59;98555.76;223491;184;138724;-67
2023/05/16 04:54:29;;;;;;;4.70;2.30;;;;;;;14.43;64.60;98563.57;223551;184;137725;-67
2023/05/16 04:59:32;;;;;;;3.10;2.50;;;;;;;14.55;63.96;98568.63;223550;184;144531;-65
2023/05/16 05:04:36;;;;;;;4.80;2.40;;;;;;;14.65;63.59;98570.46;223565;184;139058;-64
2023/05/16 05:09:41;;;;;;;21.30;14.60;;;;;;;14.84;64.33;98573.23;223492;183;136327;-67
2023/05/16 05:14:45;;;;;;;159.30;123.20;;;;;;;14.93;62.98;98567.33;223441;184;145030;-65
2023/05/16 05:19:47;;;;;;;22.30;16.60;;;;;;;15.00;62.27;98569.35;223491;184;138246;-68
2023/05/16 05:24:51;;;;;;;8.30;3.20;;;;;;;15.07;62.09;98562.31;223572;183;137827;-67
2023/05/16 05:29:54;;;;;;;5.90;3.10;;;;;;;15.25;61.76;98565.02;223607;183;145292;-65
2023/05/16 05:34:57;;;;;;;8.70;3.00;;;;;;;15.38;61.41;98569.19;223580;183;138466;-66
2023/05/16 05:40:00;;;;;;;8.40;3.60;;;;;;;15.53;61.66;98570.41;223512;184;137616;-66
2023/05/16 05:45:06;;;;;;;11.40;3.70;;;;;;;15.63;61.07;98578.75;223606;183;144995;-63
2023/05/16 05:50:10;;;;;;;6.50;3.10;;;;;;;15.72;60.59;98576.04;223433;183;140482;-63
2023/05/16 05:55:13;;;;;;;7.10;3.80;;;;;;;15.82;60.26;98578.16;223550;183;137236;-62
2023/05/16 06:00:16;;;;;;;6.90;3.40;;;;;;;15.92;60.52;98580.10;223540;183;145745;-65
2023/05/16 06:05:22;;;;;;;4.40;3.10;;;;;;;16.05;60.06;98581.94;223628;183;138741;-68
2023/05/16 06:10:25;;;;;;;30.60;26.40;;;;;;;16.18;59.77;98571.41;223541;183;137825;-67
2023/05/16 06:15:28;;;;;;;6.60;3.60;;;;;;;16.31;58.77;98570.73;223627;184;145485;-66
2023/05/16 06:20:31;;;;;;;3.20;2.50;;;;;;;16.39;57.89;98570.19;223500;184;138443;-66
2023/05/16 06:25:34;;;;;;;7.30;2.80;;;;;;;16.46;57.19;98577.23;223615;183;137180;-66
2023/05/16 06:30:37;;;;;;;6.30;3.20;;;;;;;16.53;57.09;98585.00;223601;184;145342;-67
2023/05/16 06:35:43;;;;;;;8.90;3.10;;;;;;;16.59;57.28;98587.33;223547;183;140077;-68
2023/05/16 06:40:45;;;;;;;12.40;9.80;;;;;;;16.60;57.09;98586.72;223697;183;137341;-67
2023/05/16 06:48:09;;;;;;;7.10;3.70;;;;;;;16.77;57.02;98579.39;221773;192;666218;-63
2023/05/16 06:53:12;;;;;;;4.30;3.20;;;;;;;16.83;56.43;98583.24;223729;183;136546;-69
2023/05/16 06:58:15;;;;;;;5.00;3.20;;;;;;;16.86;56.10;98589.63;223760;181;143898;-66
2023/05/16 07:03:18;;;;;;;8.70;3.40;;;;;;;16.93;55.81;98586.25;223828;180;138358;-71
2023/05/16 07:08:21;;;;;;;36.80;27.70;;;;;;;16.99;55.94;98595.56;223792;181;136667;-71
2023/05/16 07:13:24;;;;;;;39.70;35.20;;;;;;;17.09;55.88;98595.55;223865;181;143444;-66
2023/05/16 07:18:28;;;;;;;8.20;3.90;;;;;;;17.15;55.41;98604.23;223736;181;139007;-67
2023/05/16 07:23:31;;;;;;;7.50;3.90;;;;;;;17.19;55.14;98614.09;223896;181;137861;-69
2023/05/16 07:28:34;;;;;;;7.00;3.80;;;;;;;17.28;55.47;98613.51;223772;181;143440;-72
2023/05/16 07:33:37;;;;;;;4.90;3.80;;;;;;;17.37;55.28;98619.80;223855;181;138808;-66
2023/05/16 07:38:40;;;;;;;7.90;3.60;;;;;;;17.49;55.39;98618.98;223872;180;136782;-69
2023/05/16 07:43:43;;;;;;;11.20;9.30;;;;;;;17.60;55.36;98622.48;223666;182;144572;-66
2023/05/16 07:48:46;;;;;;;4.20;3.30;;;;;;;17.74;55.11;98616.13;223760;180;138378;-68
2023/05/16 07:53:50;;;;;;;4.70;3.70;;;;;;;17.84;54.56;98622.14;223655;181;138312;-69
2023/05/16 07:58:53;;;;;;;8.40;3.80;;;;;;;17.90;54.23;98627.20;223800;181;145348;-71
2023/05/16 08:03:57;;;;;;;4.40;3.60;;;;;;;18.00;53.76;98635.10;223727;181;138385;-65
2023/05/16 08:09:00;;;;;;;5.90;4.10;;;;;;;18.10;54.05;98644.44;223668;181;136879;-64
2023/05/16 08:14:03;;;;;;;4.90;3.80;;;;;;;18.22;53.98;98662.36;223746;181;146332;-69
2023/05/16 08:19:06;;;;;;;6.20;4.10;;;;;;;18.28;53.46;98648.83;223629;181;138580;-66
2023/05/16 08:24:10;;;;;;;99.00;78.30;;;;;;;18.40;53.21;98641.95;223628;182;136725;-64
2023/05/16 08:29:14;;;;;;;6.00;4.50;;;;;;;18.54;53.07;98636.46;223739;181;145284;-64
2023/05/16 08:34:20;;;;;;;9.20;5.60;;;;;;;18.70;55.50;98629.77;223621;181;138325;-65
2023/05/16 08:39:23;;;;;;;6.90;5.30;;;;;;;18.86;54.22;98643.79;223659;181;136668;-65
2023/05/16 08:44:27;;;;;;;6.00;4.30;;;;;;;18.98;54.48;98650.00;223667;181;146343;-65
2023/05/16 08:49:32;;;;;;;7.30;4.30;;;;;;;19.07;53.93;98644.14;223694;177;138864;-65
2023/05/16 08:54:36;;;;;;;6.50;5.00;;;;;;;19.12;53.61;98650.16;223688;181;138271;-65
2023/05/16 08:59:39;;;;;;;6.80;4.10;;;;;;;19.31;54.19;98645.83;223656;181;145234;-66
2023/05/16 09:04:44;;;;;;;62.30;47.90;;;;;;;19.42;51.63;98643.75;223687;182;138809;-65
2023/05/16 09:09:47;;;;;;;7.50;4.40;;;;;;;19.50;50.85;98636.23;223455;182;137236;-67
2023/05/16 09:14:51;;;;;;;5.30;3.80;;;;;;;19.58;50.81;98642.20;223716;182;146910;-69
2023/05/16 09:19:56;;;;;;;6.10;3.90;;;;;;;19.66;50.58;98647.23;223661;181;138549;-69
2023/05/16 09:24:59;;;;;;;115.90;101.70;;;;;;;19.66;49.49;98645.79;223687;181;136577;-64
2023/05/16 09:30:03;;;;;;;56.50;20.00;;;;;;;19.72;50.17;98652.86;223694;181;145717;-66
2023/05/16 09:35:13;;;;;;;28.20;12.00;;;;;;;19.89;51.60;98652.45;223717;181;139735;-65
2023/05/16 09:40:24;;;;;;;21.70;10.30;;;;;;;20.00;50.96;98643.45;223646;182;136699;-66
2023/05/16 09:45:27;;;;;;;6.40;4.40;;;;;;;20.08;51.24;98639.63;223699;181;145759;-66
2023/05/16 09:50:33;;;;;;;8.20;5.60;;;;;;;20.17;51.18;98636.52;223659;181;138296;-66
2023/05/16 09:55:36;;;;;;;10.50;7.80;;;;;;;20.26;50.72;98632.61;223612;181;136940;-65
2023/05/16 10:00:45;;;;;;;7.00;5.30;;;;;;;20.37;50.15;98629.85;223732;181;145382;-65
2023/05/16 10:05:49;;;;;;;7.60;4.60;;;;;;;20.43;48.85;98621.92;223669;181;138392;-66
2023/05/16 10:10:54;;;;;;;7.70;5.80;;;;;;;20.51;49.22;98617.34;223759;181;138086;-66
2023/05/16 10:15:59;;;;;;;6.00;5.10;;;;;;;20.64;49.62;98611.73;223641;181;145379;-65
2023/05/16 10:21:09;;;;;;;5.60;4.80;;;;;;;20.71;50.34;98605.39;223683;181;138741;-65
2023/05/16 10:26:15;;;;;;;8.50;4.90;;;;;;;20.79;50.26;98613.66;223760;181;136889;-65
2023/05/16 10:31:25;;;;;;;11.00;4.30;;;;;;;20.90;49.65;98608.00;223715;181;145843;-66
2023/05/16 10:36:30;;;;;;;8.00;4.40;;;;;;;21.00;49.18;98605.20;223590;181;138878;-65
2023/05/16 10:41:34;;;;;;;7.50;5.10;;;;;;;21.12;48.12;98600.58;223717;181;136963;-66
2023/05/16 10:46:37;;;;;;;12.90;5.90;;;;;;;21.21;48.44;98594.87;223824;181;145838;-64
2023/05/16 10:51:41;;;;;;;6.20;4.00;;;;;;;21.19;48.63;98588.95;223685;181;139739;-65
2023/05/16 10:56:55;;;;;;;8.60;4.40;;;;;;;21.14;48.50;98591.17;223739;181;136779;-68
2023/05/16 11:01:58;;;;;;;8.90;4.80;;;;;;;21.09;48.31;98604.45;223714;181;145448;-64
2023/05/16 11:07:02;;;;;;;5.90;4.60;;;;;;;21.08;48.27;98594.09;223769;181;139807;-65
2023/05/16 11:12:08;;;;;;;10.50;4.70;;;;;;;21.09;48.16;98594.69;223698;181;137022;-65
2023/05/16 11:17:19;;;;;;;7.90;5.20;;;;;;;21.07;48.25;98600.63;223735;181;145401;-64
2023/05/16 11:22:29;;;;;;;7.90;4.90;;;;;;;21.09;48.43;98607.11;223757;181;138369;-64
2023/05/16 11:27:42;;;;;;;9.60;4.90;;;;;;;21.10;48.59;98606.52;223727;182;137008;-64
2023/05/16 11:32:47;;;;;;;5.20;4.30;;;;;;;21.05;48.84;98606.09;223730;182;145294;-64
2023/05/16 11:37:50;;;;;;;9.10;4.90;;;;;;;20.97;48.99;98608.22;223681;181;138409;-64
2023/05/16 11:42:53;;;;;;;7.10;5.50;;;;;;;20.93;49.59;98601.64;223693;181;138595;-64
2023/05/16 11:48:02;;;;;;;10.10;5.40;;;;;;;20.95;49.86;98596.19;223723;181;147839;-64
2023/05/16 11:53:07;;;;;;;8.90;5.20;;;;;;;20.93;50.13;98605.46;223728;181;138836;-65
2023/05/16 11:58:11;;;;;;;18.00;13.60;;;;;;;20.90;49.59;98611.55;223692;181;137069;-64
2023/05/16 12:03:14;;;;;;;11.60;5.00;;;;;;;20.87;49.28;98616.77;223617;181;144946;-64
2023/05/16 12:08:20;;;;;;;11.60;5.00;;;;;;;20.79;49.72;98619.06;223688;181;139044;-64
2023/05/16 12:13:24;;;;;;;10.00;5.00;;;;;;;20.70;49.91;98626.41;223694;181;136670;-63
2023/05/16 12:18:27;;;;;;;11.00;4.80;;;;;;;20.57;49.36;98620.09;223715;181;144968;-64
2023/05/16 12:23:32;;;;;;;9.80;4.80;;;;;;;20.47;49.25;98620.27;223755;181;138852;-64
2023/05/16 12:28:37;;;;;;;8.10;4.80;;;;;;;20.41;49.16;98623.98;223703;181;137125;-64
2023/05/16 12:33:40;;;;;;;;;;;;;;;20.33;49.17;98626.97;223680;182;146168;-64
2023/05/16 12:38:46;;;;;;;8.30;4.20;;;;;;;20.23;49.05;98624.02;223800;181;138161;-63
2023/05/16 12:43:49;;;;;;;9.30;4.30;;;;;;;20.13;50.29;98621.08;223679;181;136505;-63
2023/05/16 12:49:03;;;;;;;6.40;4.00;;;;;;;20.10;50.69;98620.15;223703;181;145921;-64
2023/05/16 12:54:10;;;;;;;9.70;3.80;;;;;;;20.05;51.02;98613.64;223673;181;138037;-64
2023/05/16 12:59:14;;;;;;;8.20;4.00;;;;;;;20.00;50.58;98611.30;223781;181;137437;-65
2023/05/16 13:04:18;;;;;;;5.30;3.90;;;;;;;19.99;50.44;98610.88;223586;181;145357;-65
2023/05/16 13:09:23;;;;;;;4.20;3.70;;;;;;;19.95;50.29;98609.02;223764;181;138436;-65
2023/05/16 13:14:26;;;;;;;6.10;3.80;;;;;;;19.94;50.42;98608.34;223733;181;136651;-64
2023/05/16 13:19:30;;;;;;;6.30;4.00;;;;;;;19.90;50.54;98612.03;223689;181;145190;-65
2023/05/16 13:24:33;;;;;;;5.60;4.30;;;;;;;19.88;51.31;98608.83;223645;181;138845;-65
2023/05/16 13:29:36;;;;;;;6.20;4.20;;;;;;;19.83;52.22;98605.98;223473;182;136936;-66
2023/05/16 13:34:39;;;;;;;36.00;27.40;;;;;;;19.78;53.01;98601.04;223698;181;145803;-65
2023/05/16 13:39:42;;;;;;;10.20;6.20;;;;;;;19.72;54.58;98597.04;223547;181;139901;-63
2023/05/16 13:44:46;;;;;;;5.80;4.50;;;;;;;19.61;55.77;98600.02;223681;181;138083;-67
2023/05/16 13:49:49;;;;;;;5.80;4.40;;;;;;;19.51;56.51;98594.91;223700;181;144982;-67
2023/05/16 13:54:52;;;;;;;5.80;4.80;;;;;;;19.45;56.94;98586.41;223677;181;139293;-65
2023/05/16 13:59:56;;;;;;;9.10;8.10;;;;;;;19.41;57.89;98581.31;223714;181;137186;-68
2023/05/16 14:05:21;;;;;;;9.80;8.40;;;;;;;19.43;58.74;98579.77;223729;181;147215;-67
2023/05/16 14:10:25;;;;;;;7.20;5.30;;;;;;;19.46;58.87;98581.46;223594;181;137675;-66
2023/05/16 14:15:29;;;;;;;7.70;4.90;;;;;;;19.45;59.50;98580.63;223599;181;137284;-70
2023/05/16 14:20:32;;;;;;;8.20;4.80;;;;;;;19.49;59.62;98580.90;223675;181;146438;-68
2023/05/16 14:25:35;;;;;;;8.50;4.30;;;;;;;19.51;59.48;98577.27;223627;181;139355;-69
2023/05/16 14:30:38;;;;;;;24.30;19.00;;;;;;;19.53;59.56;98572.07;223675;181;137415;-66
2023/05/16 14:35:41;;;;;;;60.10;49.30;;;;;;;19.57;58.76;98571.41;223588;181;146051;-69
2023/05/16 14:40:45;;;;;;;11.20;9.20;;;;;;;19.62;58.15;98568.26;223676;181;138524;-69
2023/05/16 14:45:48;;;;;;;7.80;5.00;;;;;;;19.58;56.69;98571.17;223692;181;137114;-68
2023/05/16 14:50:51;;;;;;;5.30;3.90;;;;;;;19.39;56.15;98569.19;223650;181;145972;-69
2023/05/16 14:55:56;;;;;;;11.30;4.10;;;;;;;19.33;56.20;98576.52;223617;181;139133;-70
2023/05/16 15:00:59;;;;;;;10.80;4.60;;;;;;;19.28;55.85;98576.88;223755;181;137356;-68
2023/05/16 15:06:06;;;;;;;9.70;4.30;;;;;;;19.19;55.89;98573.86;223507;181;145437;-67
2023/05/16 15:11:10;;;;;;;10.00;4.30;;;;;;;19.14;56.16;98574.73;223664;181;139455;-67
2023/05/16 15:16:13;;;;;;;14.50;4.50;;;;;;;19.09;56.23;98577.11;223603;182;139645;-67
2023/05/16 15:21:16;;;;;;;12.10;4.20;;;;;;;19.01;56.66;98579.86;223517;181;148714;-66
2023/05/16 15:26:21;;;;;;;35.20;18.30;;;;;;;18.97;57.85;98575.13;223607;181;139005;-67
2023/05/16 15:31:24;;;;;;;13.00;7.00;;;;;;;19.11;59.05;98577.93;223684;181;139931;-67
2023/05/16 15:36:27;;;;;;;11.50;5.00;;;;;;;19.08;56.77;98575.89;223578;181;147337;-68
2023/05/16 15:41:30;;;;;;;11.50;5.00;;;;;;;18.99;57.03;98563.94;223631;181;138901;-67
2023/05/16 15:46:38;;;;;;;14.30;4.70;;;;;;;18.90;57.98;98555.50;223752;181;137374;-68
2023/05/16 15:51:42;;;;;;;6.90;5.10;;;;;;;18.78;59.34;98562.70;223629;181;147082;-67
2023/05/16 15:56:45;;;;;;;7.00;4.90;;;;;;;18.62;60.34;98567.33;223694;181;138088;-69
2023/05/16 16:01:48;;;;;;;5.60;5.10;;;;;;;18.48;61.39;98574.23;223723;181;138984;-69
2023/05/16 16:06:52;;;;;;;8.60;4.10;;;;;;;18.37;61.21;98577.61;223740;181;147601;-68
2023/05/16 16:11:55;;;;;;;6.90;4.70;;;;;;;18.34;61.09;98574.92;223544;181;139990;-67
2023/05/16 16:16:59;;;;;;;8.80;5.50;;;;;;;18.29;60.50;98580.95;223643;181;137044;-66
2023/05/16 16:22:02;;;;;;;9.00;6.10;;;;;;;18.26;60.57;98578.44;223610;181;146866;-65
2023/05/16 16:27:05;;;;;;;7.40;5.20;;;;;;;18.23;60.67;98581.42;223626;181;138973;-66
2023/05/16 16:32:08;;;;;;;17.40;7.80;;;;;;;18.19;60.62;98584.33;223708;181;137286;-64
2023/05/16 16:37:11;;;;;;;9.90;6.00;;;;;;;18.12;60.71;98586.11;223667;181;146920;-66
2023/05/16 16:48:11;;;;;;;28.10;20.80;;;;;;;17.93;61.88;98588.31;221696;194;666205;-69
2023/05/16 16:53:15;;;;;;;8.90;5.10;;;;;;;17.86;62.26;98588.38;223578;184;136457;-67
2023/05/16 16:58:18;;;;;;;8.10;4.90;;;;;;;17.84;62.27;98590.69;223515;184;143814;-68
2023/05/16 17:03:21;;;;;;;8.10;4.80;;;;;;;17.82;62.37;98590.21;223417;184;139332;-67
2023/05/16 17:08:24;;;;;;;7.80;4.50;;;;;;;17.72;62.46;98583.93;223502;183;137048;-68
2023/05/16 17:13:32;;;;;;;6.10;3.60;;;;;;;17.64;62.49;98579.88;223454;184;143957;-67
2023/05/16 17:18:35;;;;;;;5.80;3.70;;;;;;;17.61;62.77;98577.81;223334;184;138401;-66
2023/05/16 17:23:39;;;;;;;4.10;3.10;;;;;;;17.48;63.37;98580.59;223562;184;136210;-64
2023/05/16 17:28:48;;;;;;;4.30;3.90;;;;;;;17.29;63.95;98581.74;223454;183;143429;-67
2023/05/16 17:33:52;;;;;;;6.20;3.90;;;;;;;17.17;64.43;98577.02;223472;183;138782;-66
2023/05/16 17:38:55;;;;;;;4.10;3.30;;;;;;;17.06;65.28;98577.85;223441;183;136544;-67
2023/05/16 17:43:58;;;;;;;4.80;3.40;;;;;;;17.00;65.90;98579.09;223389;184;145121;-67
2023/05/16 17:49:01;;;;;;;11.40;10.00;;;;;;;17.00;66.22;98575.49;223461;184;138825;-67
2023/05/16 17:54:04;;;;;;;3.70;3.20;;;;;;;17.13;66.84;98579.73;223645;183;136840;-65
2023/05/16 17:59:08;;;;;;;5.90;3.90;;;;;;;17.20;66.26;98576.46;223590;183;145240;-65
2023/05/16 18:04:12;;;;;;;4.60;3.90;;;;;;;17.08;66.50;98576.20;223521;184;138353;-64
2023/05/16 18:09:19;;;;;;;22.30;15.60;;;;;;;16.95;67.30;98572.13;223477;183;137266;-65
2023/05/16 18:14:22;;;;;;;7.80;5.20;;;;;;;16.90;67.52;98570.03;223445;183;145503;-67
2023/05/16 18:19:25;;;;;;;6.90;4.00;;;;;;;16.75;67.92;98570.36;223487;183;138605;-65
2023/05/16 18:24:29;;;;;;;6.10;4.00;;;;;;;16.67;68.31;98572.17;223642;182;137800;-65
2023/05/16 18:29:33;;;;;;;5.20;3.80;;;;;;;16.63;68.64;98574.55;223720;181;145189;-64
2023/05/16 18:34:36;;;;;;;5.70;4.60;;;;;;;16.62;68.86;98581.83;223598;182;138140;-64
2023/05/16 18:39:40;;;;;;;8.20;5.20;;;;;;;16.59;69.00;98584.43;223550;182;140296;-63
2023/05/16 18:44:44;;;;;;;6.40;5.40;;;;;;;16.54;69.34;98586.69;223593;182;145032;-66
2023/05/16 18:49:47;;;;;;;7.10;5.40;;;;;;;16.52;69.18;98587.91;223529;181;139851;-64
2023/05/16 18:54:50;;;;;;;8.30;6.20;;;;;;;16.51;69.06;98590.40;223622;182;136961;-64
2023/05/16 18:59:55;;;;;;;9.40;6.00;;;;;;;16.50;69.44;98590.83;223603;182;146023;-64
2023/05/16 19:04:58;;;;;;;6.60;4.60;;;;;;;16.49;69.25;98592.38;223550;182;139777;-65
2023/05/16 19:10:04;;;;;;;6.70;4.50;;;;;;;16.47;69.21;98590.02;223601;182;137130;-64
2023/05/16 19:15:08;;;;;;;5.80;4.70;;;;;;;16.48;69.39;98593.73;223559;181;145807;-64
2023/05/16 19:20:11;;;;;;;5.80;4.90;;;;;;;16.44;69.51;98590.65;223466;181;138401;-64
2023/05/16 19:25:14;;;;;;;5.50;4.50;;;;;;;16.38;69.52;98594.63;223649;182;136379;-63
2023/05/16 19:30:18;;;;;;;8.20;5.10;;;;;;;16.28;69.93;98586.81;223540;181;145866;-64
2023/05/16 19:35:22;;;;;;;8.50;5.80;;;;;;;16.26;70.17;98585.52;223655;181;139986;-65
2023/05/16 19:40:25;;;;;;;10.40;5.70;;;;;;;16.27;70.48;98588.86;223564;181;136905;-66
2023/05/16 19:45:28;;;;;;;7.90;5.30;;;;;;;16.30;70.35;98593.27;223527;181;145393;-66
2023/05/16 19:50:32;;;;;;;6.40;5.70;;;;;;;16.31;70.38;98592.45;223624;181;139343;-66
2023/05/16 19:55:36;;;;;;;7.00;5.30;;;;;;;16.32;70.53;98600.53;223619;181;137054;-66
2023/05/16 20:00:40;;;;;;;7.00;5.30;;;;;;;16.28;70.51;98602.38;223602;181;145444;-66
2023/05/16 20:05:43;;;;;;;8.60;5.30;;;;;;;16.19;71.04;98596.95;223665;181;139189;-65
2023/05/16 20:10:46;;;;;;;7.40;5.40;;;;;;;16.17;71.16;98591.59;223670;181;137323;-65
2023/05/16 20:15:50;;;;;;;6.10;5.50;;;;;;;16.22;71.39;98588.57;223574;182;145104;-64
2023/05/16 20:20:53;;;;;;;6.90;5.60;;;;;;;16.22;71.29;98581.98;223579;182;138867;-64
2023/05/16 20:25:59;;;;;;;4.90;4.40;;;;;;;16.16;71.23;98576.42;223590;181;137863;-64
2023/05/16 20:31:02;;;;;;;7.90;5.40;;;;;;;16.09;71.53;98571.89;223685;182;145106;-64
2023/05/16 20:36:05;;;;;;;7.20;6.00;;;;;;;16.11;71.80;98572.64;223529;181;140002;-64
2023/05/16 20:41:08;;;;;;;7.60;5.50;;;;;;;16.03;71.82;98567.14;223685;181;136988;-63
2023/05/16 20:46:11;;;;;;;8.10;5.70;;;;;;;15.97;72.00;98561.59;223663;182;145319;-64
2023/05/16 20:51:14;;;;;;;9.30;5.60;;;;;;;15.92;72.27;98562.41;223622;182;139159;-65
2023/05/16 20:56:18;;;;;;;5.40;4.90;;;;;;;15.85;72.63;98561.89;223613;182;137845;-64
2023/05/16 21:01:21;;;;;;;7.20;5.10;;;;;;;15.85;72.74;98556.22;223503;182;145825;-65
2023/05/16 21:06:24;;;;;;;5.90;5.00;;;;;;;15.79;72.89;98545.45;223603;182;138773;-64
2023/05/16 21:11:27;;;;;;;5.40;4.80;;;;;;;15.74;73.10;98542.17;223708;181;136662;-65
2023/05/16 21:16:30;;;;;;;9.70;5.50;;;;;;;15.77;73.24;98542.12;223761;178;145093;-64
2023/05/16 21:21:33;;;;;;;7.20;6.00;;;;;;;15.80;73.24;98538.66;223625;182;139222;-63
2023/05/16 21:26:36;;;;;;;6.30;5.70;;;;;;;15.76;73.41;98533.08;223603;182;136844;-64
2023/05/16 21:31:42;;;;;;;6.80;4.90;;;;;;;15.71;73.52;98526.24;223622;181;145982;-64
2023/05/16 21:36:45;;;;;;;5.30;4.80;;;;;;;15.66;73.67;98522.58;223582;181;138449;-64
2023/05/16 21:41:48;;;;;;;7.40;5.10;;;;;;;15.68;73.87;98510.54;223603;181;137539;-64
2023/05/16 21:46:53;;;;;;;6.20;5.60;;;;;;;15.65;74.11;98511.58;223780;182;147427;-65
2023/05/16 21:51:56;;;;;;;7.30;6.00;;;;;;;15.65;74.18;98506.55;223605;182;138452;-65
2023/05/16 21:56:59;;;;;;;6.00;5.00;;;;;;;15.58;74.42;98503.59;223647;181;138903;-65
2023/05/16 22:02:02;;;;;;;5.40;4.40;;;;;;;15.58;74.66;98496.44;223495;181;145526;-65
2023/05/16 22:07:06;;;;;;;5.00;4.10;;;;;;;15.62;74.75;98493.56;223605;181;138422;-64
2023/05/16 22:12:09;;;;;;;4.50;4.10;;;;;;;15.68;74.44;98487.90;223615;181;136896;-63
2023/05/16 22:17:12;;;;;;;7.60;4.70;;;;;;;15.69;74.30;98494.21;223658;181;145180;-64
2023/05/16 22:22:15;;;;;;;4.50;4.00;;;;;;;15.67;74.04;98495.48;223600;181;138812;-64
2023/05/16 22:27:18;;;;;;;4.90;3.50;;;;;;;15.61;74.33;98495.45;223656;181;137279;-65
2023/05/16 22:32:22;;;;;;;4.10;3.60;;;;;;;15.64;74.32;98489.28;223685;181;145699;-63
2023/05/16 22:37:25;;;;;;;3.50;3.20;;;;;;;15.66;74.10;98484.95;223633;181;138416;-65
2023/05/16 22:42:30;;;;;;;4.70;4.10;;;;;;;15.62;74.16;98488.58;223611;181;137007;-64
2023/05/16 22:47:33;;;;;;;3.70;3.40;;;;;;;15.59;74.24;98491.27;223732;181;146091;-64
2023/05/16 22:52:40;;;;;;;5.20;3.70;;;;;;;15.65;73.98;98489.55;223689;182;138959;-65
2023/05/16 22:57:44;;;;;;;4.40;3.80;;;;;;;15.59;74.05;98484.36;223681;181;137359;-66
2023/05/16 23:02:47;;;;;;;3.60;3.30;;;;;;;15.55;74.25;98486.87;223564;181;145204;-67
2023/05/16 23:07:50;;;;;;;5.70;3.70;;;;;;;15.56;74.18;98488.35;223593;181;139315;-65
2023/05/16 23:12:53;;;;;;;4.20;3.70;;;;;;;15.57;74.28;98486.27;223657;181;136594;-66
2023/05/16 23:17:56;;;;;;;4.50;3.90;;;;;;;15.54;74.36;98482.30;223642;181;145876;-66
2023/05/16 23:23:00;;;;;;;3.90;3.40;;;;;;;15.48;74.32;98483.44;223676;183;140516;-66
2023/05/16 23:28:03;;;;;;;4.20;3.40;;;;;;;15.46;74.42;98485.96;223815;181;137374;-64
2023/05/16 23:33:06;;;;;;;6.00;4.50;;;;;;;15.47;74.35;98477.95;223565;181;145609;-65
2023/05/16 23:38:10;;;;;;;6.60;3.70;;;;;;;15.53;74.22;98475.07;223680;181;138341;-64
2023/05/16 23:43:13;;;;;;;5.60;4.10;;;;;;;15.54;74.01;98476.80;223404;181;137237;-64
2023/05/16 23:48:16;;;;;;;5.00;4.20;;;;;;;15.52;73.92;98464.80;223531;181;145237;-65